Archival Weather

Republic

Farmingdale, New York (KFRG)

Report from: Sunday, January 28, 2024 12:53 AM EST
Current time: Monday, June 17, 2024 4:13 AM EDT

Current weather – Weather history – Daily summaries
Weather forecast

Temperature5.0°C (41.0°F)
Wind chill3.3°C (38.0°F)
Dew point2.2°C (36.0°F)
Winds 4 kts (2.1 m/s, 4.6 mph) Southeast (130°)
Visibility10 mi. (16.1 km)
Clouds Ceiling: Broken clouds 2,800 ft. (853 m)
Overcast 10,000 ft. (3,048 m)
Altimeter30.15 in.Hg (1021 mB)
Relative humidity82 %
Density altitude-1,369 ft. (-417 m)
Sea-level pressure102.1 kPa (1021 mB, 30.15 in.Hg)
Max temp last 6 hours5.6°C (42.1°F)
Min temp last 6 hours5.0°C (41.0°F)
Remarks Fully automated report
Automated weather observing station without precipitation discriminator
Pressure falling more slowly
Flight conditions Marginal Visual Meteorological Conditions
Raw dataKFRG 280553Z AUTO 13004KT 10SM BKN028 OVC100 05/02 A3015 RMK AO1 SLP211 T00500022 10056 20050 56011
An error has occurred. This application may no longer respond until reloaded. Reload 🗙